Ladd Junction, Illinois
Current Conditions -  °F | °C
As of 2:35 AM on Saturday 25 Oct 2014 (Local Time) from KVYS Reporting Station
Clear Clear  
Wind Chill: 55°   Ceiling: Unl
Heat Index: 55°   Visibility: 10mi
Dew Point: 50°   Wind: 5mph
Humidity: 85%   Direction: 250°WSW
Pressure: 29.92"   Gusts: NA
Location:  41.3817°N, 89.2146°W
Report Text: KVYS 250735Z AUTO 25004KT 10SM CLR 13/10 A2992 RMK AO2 T01260101
Loading
Personal Weather Stations






























Interactive Weather Map
Tropical Storm Tracking
New forecast layout! Learn more

10-Day Weather Forecast

Advertisements
Track Severe Weather on mobile